TX04 weather

Public forecast

Using degrees Fahrenheit for public forecast. Weather courtesy of forecast.io.

Closest aviation weather report (METAR) to Lucky Star Ranch Airport

Closest report is Brenham Municipal Airport, 9.0 nm (16.7 km) ESE. Retrieved 2020/08/09 13:15 UTC (8 minutes ago):

K11R 091315Z AUTO 00000KT 10SM CLR 26/26 A3013 RMK AO2 T02630255

Closest aviation forecast (TAF) to Lucky Star Ranch Airport

Closest forecast is Easterwood Field, 19.8 nm (36.6 km) NNE. Retrieved 2020/08/09 12:36 UTC (47 minutes ago):

TAF KCLL 091132Z 0912/1012 16004KT P6SM FEW015 FM091400 18009KT P6SM SCT030 FM092200 16010KT P6SM FEW050 FM100600 18006KT P6SM SKC FM101100 17004KT P6SM BKN015